CLM5 weather

Lake Muskoka South Seaplane Base
Lake Muskoka, Ontario, Canada

Public forecast

Using degrees Celsius for public forecast. Weather courtesy of forecast.io.

Closest aviation weather report (METAR) to Lake Muskoka South Seaplane Base

Closest report is Muskoka Airport, 5.4 nm (10.0 km) E. Retrieved 2020/02/23 07:17 UTC (14 minutes ago):

CYQA 230717Z AUTO 14002KT 5SM BR CLR M09/M10 A2999 RMK ICG SLP173

Closest aviation forecast (TAF) to Lake Muskoka South Seaplane Base

Forecast is more than 6 hours old.

Closest forecast is Muskoka Airport, 5.4 nm (10.0 km) E. Retrieved 2020/02/22 20:00 UTC (12 hours ago):

TAF CYQA 221939Z 2220/2303 26007KT P6SM OVC020 TEMPO 2220/2222 SCT025 FM222200 21005KT P6SM FEW025 RMK FCST BASED ON AUTO OBS NXT FCST WILL BE ISSUED AT 231245Z